createdAt,value
2022-09-13T00:01:05.016Z,159.98
2022-09-13T00:03:33.129Z,159.30
2022-09-13T00:06:12.031Z,160.02
2022-09-13T00:08:40.258Z,162.32
2022-09-13T00:11:14.256Z,163.48
2022-09-13T00:13:41.655Z,155.40
2022-09-13T00:16:13.375Z,160.07
2022-09-13T00:18:41.411Z,158.40
2022-09-13T00:21:12.112Z,161.45
2022-09-13T00:23:41.609Z,159.93
2022-09-13T00:26:15.243Z,159.85
2022-09-13T00:28:43.283Z,156.80
2022-09-13T00:31:10.767Z,160.43
2022-09-13T00:33:38.924Z,155.68
2022-09-13T00:36:10.436Z,159.13
2022-09-13T00:38:39.643Z,161.82
2022-09-13T00:41:11.267Z,157.25
2022-09-13T00:43:52.534Z,158.57
2022-09-13T00:46:40.346Z,155.35
2022-09-13T00:49:29.238Z,156.38
2022-09-13T00:52:00.320Z,156.27
2022-09-13T00:54:33.168Z,156.40
2022-09-13T00:57:03.113Z,159.23
2022-09-13T01:00:03.622Z,156.48
2022-09-13T01:02:31.754Z,156.43
2022-09-13T01:04:59.265Z,156.73
2022-09-13T01:07:27.009Z,156.35
2022-09-13T01:09:54.749Z,159.35
2022-09-13T01:12:45.575Z,160.63
2022-09-13T01:15:12.941Z,158.98
2022-09-13T01:17:40.632Z,156.07
2022-09-13T01:20:11.142Z,163.88
2022-09-13T01:23:15.584Z,163.20
2022-09-13T01:26:12.379Z,163.93
2022-09-13T01:28:48.529Z,158.82
2022-09-13T01:31:30.779Z,161.38
2022-09-13T01:34:16.786Z,155.82
2022-09-13T01:36:52.953Z,156.73
2022-09-13T01:39:39.379Z,161.40
2022-09-13T01:42:21.543Z,159.70
2022-09-13T01:45:07.110Z,156.70
2022-09-13T01:47:51.027Z,157.35
2022-09-13T01:50:43.156Z,157.35
2022-09-13T01:53:34.703Z,157.80
2022-09-13T01:56:09.344Z,156.38
2022-09-13T01:58:51.980Z,161.30
2022-09-13T02:01:30.660Z,155.32
2022-09-13T02:04:06.687Z,156.20
2022-09-13T02:06:57.020Z,153.52
2022-09-13T02:09:28.036Z,151.80
2022-09-13T02:12:02.996Z,154.60
2022-09-13T02:14:41.608Z,156.05
2022-09-13T02:17:24.575Z,155.00
2022-09-13T02:19:52.069Z,118.32
2022-09-13T02:22:25.817Z,157.68
2022-09-13T02:24:59.298Z,154.27
2022-09-13T02:27:32.586Z,158.73
2022-09-13T02:30:07.229Z,154.88
2022-09-13T02:32:52.826Z,155.00
2022-09-13T02:35:21.527Z,152.82
2022-09-13T02:37:58.469Z,156.90
2022-09-13T02:40:30.623Z,156.73
2022-09-13T02:43:16.728Z,156.45
2022-09-13T02:46:01.255Z,158.02
2022-09-13T02:49:08.404Z,158.00
2022-09-13T02:52:01.909Z,153.75
2022-09-13T02:54:42.576Z,162.30
2022-09-13T02:57:27.659Z,154.05
2022-09-13T02:59:55.101Z,136.20
2022-09-13T03:02:26.272Z,153.02
2022-09-13T03:04:54.054Z,159.18
2022-09-13T03:07:21.338Z,151.38
2022-09-13T03:09:53.753Z,152.93
2022-09-13T03:12:30.066Z,114.40
2022-09-13T03:15:02.277Z,156.65
2022-09-13T03:18:01.024Z,156.40
2022-09-13T03:20:40.047Z,160.95
2022-09-13T03:23:34.648Z,157.15
2022-09-13T03:26:04.738Z,151.50
2022-09-13T03:28:48.055Z,157.85
2022-09-13T03:31:34.128Z,157.07
2022-09-13T03:34:13.491Z,156.30
2022-09-13T03:37:30.867Z,149.88
2022-09-13T03:40:05.769Z,154.27
2022-09-13T03:42:49.563Z,155.27
2022-09-13T03:47:49.279Z,152.45
2022-09-13T03:50:21.214Z,150.95
2022-09-13T03:52:55.068Z,150.27
2022-09-13T03:55:23.008Z,153.57
2022-09-13T03:57:50.417Z,160.82
2022-09-13T04:00:18.790Z,154.40
2022-09-13T04:02:46.264Z,158.50
2022-09-13T04:05:13.792Z,153.65
2022-09-13T04:07:41.139Z,154.48
2022-09-13T04:10:13.081Z,151.27
2022-09-13T04:12:41.533Z,124.07
2022-09-13T04:15:10.486Z,161.40
2022-09-13T04:17:37.904Z,154.90
2022-09-13T04:20:06.248Z,163.32
2022-09-13T04:22:33.789Z,167.88
2022-09-13T04:25:02.622Z,159.27
2022-09-13T04:27:30.118Z,155.13
2022-09-13T04:29:57.441Z,168.80
2022-09-13T04:32:24.910Z,162.25
2022-09-13T04:34:52.193Z,158.82
2022-09-13T04:37:19.617Z,169.38
2022-09-13T04:39:47.172Z,160.13
2022-09-13T04:42:14.736Z,152.02
2022-09-13T04:44:42.144Z,156.05
2022-09-13T04:47:09.517Z,157.02
2022-09-13T04:49:36.897Z,161.85
2022-09-13T04:52:04.395Z,155.98
2022-09-13T04:54:31.609Z,155.07
2022-09-13T04:56:58.993Z,157.25
2022-09-13T04:59:26.623Z,158.57
2022-09-13T05:01:53.993Z,170.57
2022-09-13T05:04:21.317Z,164.88
2022-09-13T05:06:48.874Z,161.13
2022-09-13T05:09:16.544Z,163.32
2022-09-13T05:11:44.425Z,156.23
2022-09-13T05:14:12.572Z,152.15
2022-09-13T05:16:40.371Z,155.85
2022-09-13T05:19:07.713Z,161.18
2022-09-13T05:21:35.241Z,158.02
2022-09-13T05:24:02.642Z,161.65
2022-09-13T05:26:34.062Z,162.57
2022-09-13T05:29:01.546Z,167.18
2022-09-13T05:31:33.689Z,164.07
2022-09-13T05:34:03.665Z,161.38
2022-09-13T05:36:31.219Z,157.90
2022-09-13T05:39:25.976Z,168.05
2022-09-13T05:41:46.481Z,165.63
2022-09-13T05:44:18.387Z,163.50
2022-09-13T05:46:49.843Z,160.63
2022-09-13T05:49:19.100Z,158.25
2022-09-13T05:51:46.807Z,164.70
2022-09-13T05:54:14.290Z,159.65
2022-09-13T05:56:41.578Z,168.77
2022-09-13T05:59:13.710Z,163.13
2022-09-13T06:01:41.238Z,163.00
2022-09-13T06:04:08.589Z,160.07
2022-09-13T06:06:36.241Z,164.98
2022-09-13T06:09:03.881Z,153.95
2022-09-13T06:11:32.247Z,157.70
2022-09-13T06:13:59.560Z,166.07
2022-09-13T06:16:26.946Z,154.52
2022-09-13T06:18:54.255Z,156.07
2022-09-13T06:21:28.300Z,153.88
2022-09-13T06:23:56.831Z,164.00
2022-09-13T06:26:26.693Z,165.35
2022-09-13T06:28:56.547Z,164.85
2022-09-13T06:31:26.357Z,168.85
2022-09-13T06:33:59.265Z,174.38
2022-09-13T06:36:27.074Z,173.20
2022-09-13T06:38:54.624Z,178.15
2022-09-13T06:41:24.874Z,170.57
2022-09-13T06:43:58.847Z,163.02
2022-09-13T06:46:28.645Z,167.05
2022-09-13T06:48:59.216Z,168.88
2022-09-13T06:51:27.277Z,156.10
2022-09-13T06:53:56.940Z,161.55
2022-09-13T06:56:27.220Z,164.50
2022-09-13T06:58:59.793Z,163.45
2022-09-13T07:01:32.656Z,159.90
2022-09-13T07:04:05.918Z,122.15
2022-09-13T07:06:35.777Z,171.02
2022-09-13T07:09:04.905Z,170.07
2022-09-13T07:11:35.729Z,164.82
2022-09-13T07:14:03.984Z,170.68
2022-09-13T07:16:34.008Z,164.70
2022-09-13T07:19:05.905Z,176.90
2022-09-13T07:21:34.659Z,175.77
2022-09-13T07:24:02.159Z,182.55
2022-09-13T07:26:29.717Z,180.77
2022-09-13T07:28:59.574Z,186.00
2022-09-13T07:31:30.569Z,186.82
2022-09-13T07:34:00.710Z,186.85
2022-09-13T07:36:30.277Z,180.00
2022-09-13T07:38:58.450Z,184.02
2022-09-13T07:41:28.012Z,183.88
2022-09-13T07:43:56.209Z,187.50
2022-09-13T07:46:26.275Z,185.90
2022-09-13T07:48:56.129Z,191.57
2022-09-13T07:51:26.010Z,186.07
2022-09-13T07:53:57.722Z,181.68
2022-09-13T07:56:30.933Z,187.30
2022-09-13T07:59:01.088Z,180.32
2022-09-13T08:01:40.064Z,179.43
2022-09-13T08:04:17.928Z,189.60
2022-09-13T08:06:46.618Z,172.65
2022-09-13T08:09:14.829Z,170.98
2022-09-13T08:11:44.647Z,174.35
2022-09-13T08:14:14.138Z,171.10
2022-09-13T08:16:41.677Z,165.93
2022-09-13T08:19:12.614Z,167.30
2022-09-13T08:21:42.104Z,161.70
2022-09-13T08:24:15.048Z,166.40
2022-09-13T08:26:42.287Z,119.38
2022-09-13T08:29:09.495Z,171.32
2022-09-13T08:31:37.023Z,165.52
2022-09-13T08:34:04.343Z,168.48
2022-09-13T08:36:31.654Z,171.05
2022-09-13T08:39:00.526Z,174.00
2022-09-13T08:41:45.473Z,165.68
2022-09-13T08:44:19.085Z,176.88
2022-09-13T08:46:47.198Z,185.43
2022-09-13T08:49:26.660Z,180.57
2022-09-13T08:51:58.847Z,191.50
2022-09-13T08:54:26.754Z,184.93
2022-09-13T08:57:11.849Z,176.27
2022-09-13T08:59:53.237Z,176.10
2022-09-13T09:02:28.012Z,171.80
2022-09-13T09:04:58.011Z,174.63
2022-09-13T09:07:29.444Z,179.95
2022-09-13T09:09:59.668Z,182.63
2022-09-13T09:12:44.867Z,180.88
2022-09-13T09:15:17.674Z,181.82
2022-09-13T09:18:03.383Z,185.10
2022-09-13T09:20:50.149Z,183.18
2022-09-13T09:23:27.208Z,177.55
2022-09-13T09:26:00.887Z,182.27
2022-09-13T09:28:31.664Z,174.05
2022-09-13T09:31:08.965Z,185.25
2022-09-13T09:34:01.509Z,176.73
2022-09-13T09:36:34.904Z,176.57
2022-09-13T09:39:05.477Z,177.45
2022-09-13T09:41:35.370Z,171.98
2022-09-13T09:44:17.396Z,181.30
2022-09-13T09:46:55.657Z,176.93
2022-09-13T09:50:02.672Z,183.15
2022-09-13T09:52:40.246Z,176.45
2022-09-13T09:55:30.936Z,186.60
2022-09-13T09:58:08.375Z,185.23
2022-09-13T10:00:51.454Z,182.55
2022-09-13T10:03:21.932Z,181.82
2022-09-13T10:05:49.617Z,184.63
2022-09-13T10:08:43.989Z,175.48
2022-09-13T10:11:12.361Z,184.02
2022-09-13T10:13:58.159Z,175.00
2022-09-13T10:16:28.251Z,183.73
2022-09-13T10:19:16.047Z,176.45
2022-09-13T10:21:43.495Z,174.52
2022-09-13T10:24:19.294Z,179.15
2022-09-13T10:26:47.071Z,173.75
2022-09-13T10:29:17.879Z,183.32
2022-09-13T10:31:50.254Z,182.90
2022-09-13T10:34:26.578Z,182.27
2022-09-13T10:37:15.168Z,185.50
2022-09-13T10:40:03.801Z,174.35
2022-09-13T10:42:31.723Z,175.85
2022-09-13T10:45:08.114Z,186.63
2022-09-13T10:47:44.895Z,186.77
2022-09-13T10:50:33.780Z,193.38
2022-09-13T10:53:03.365Z,194.57
2022-09-13T10:55:37.199Z,203.48
2022-09-13T10:58:07.858Z,197.88
2022-09-13T11:00:50.075Z,207.80
2022-09-13T11:03:29.655Z,196.07
2022-09-13T11:06:09.057Z,196.88
2022-09-13T11:08:54.523Z,201.32
2022-09-13T11:11:46.841Z,192.73
2022-09-13T11:14:41.643Z,206.07
2022-09-13T11:17:44.292Z,195.57
2022-09-13T11:20:45.682Z,199.88
2022-09-13T11:23:40.134Z,198.40
2022-09-13T11:26:38.288Z,201.73
2022-09-13T11:29:32.787Z,199.35
2022-09-13T11:32:22.017Z,202.45
2022-09-13T11:34:58.163Z,200.70
2022-09-13T11:37:37.863Z,210.75
2022-09-13T11:40:17.587Z,199.00
2022-09-13T11:42:48.006Z,207.20
2022-09-13T11:45:57.087Z,199.70
2022-09-13T11:48:30.540Z,205.50
2022-09-13T11:51:03.048Z,195.10
2022-09-13T11:53:50.465Z,202.13
2022-09-13T11:56:34.710Z,198.00
2022-09-13T11:59:17.984Z,193.55
2022-09-13T12:01:57.384Z,196.65
2022-09-13T12:04:37.874Z,195.35
2022-09-13T12:07:14.554Z,197.82
2022-09-13T12:09:57.894Z,192.75
2022-09-13T12:12:30.327Z,141.05
2022-09-13T12:15:14.078Z,194.88
2022-09-13T12:20:30.716Z,196.30
2022-09-13T12:23:02.312Z,187.32
2022-09-13T12:25:44.903Z,200.82
2022-09-13T12:28:43.507Z,193.55
2022-09-13T12:31:16.688Z,193.75
2022-09-13T12:33:45.529Z,200.82
2022-09-13T12:36:12.796Z,198.15
2022-09-13T12:38:42.984Z,208.82
2022-09-13T12:41:41.686Z,202.32
2022-09-13T12:44:46.021Z,204.05
2022-09-13T12:47:16.225Z,211.02
2022-09-13T12:53:10.029Z,217.40
2022-09-13T12:55:56.290Z,214.23
2022-09-13T12:58:38.402Z,212.43
2022-09-13T13:01:18.490Z,203.90
2022-09-13T13:04:02.274Z,198.52
2022-09-13T13:09:48.302Z,189.63
2022-09-13T13:12:40.883Z,204.48
2022-09-13T13:15:31.187Z,192.18
2022-09-13T13:18:19.264Z,190.68
2022-09-13T13:20:54.776Z,197.15
2022-09-13T13:23:35.472Z,196.15
2022-09-13T13:26:33.274Z,198.02
2022-09-13T13:29:03.868Z,197.68
2022-09-13T13:31:31.139Z,195.90
2022-09-13T13:34:10.156Z,195.35
2022-09-13T13:36:40.822Z,201.52
2022-09-13T13:39:23.264Z,204.73
2022-09-13T13:42:20.717Z,199.35
2022-09-13T13:44:48.023Z,199.85
2022-09-13T13:47:15.378Z,205.77
2022-09-13T13:50:17.488Z,202.95
2022-09-13T13:52:47.960Z,202.90
2022-09-13T13:55:43.980Z,193.93
2022-09-13T13:58:26.511Z,195.35
2022-09-13T14:00:56.007Z,198.30
2022-09-13T14:03:29.426Z,202.57
2022-09-13T14:08:53.068Z,204.65
2022-09-13T14:11:52.206Z,187.40
2022-09-13T14:14:34.616Z,193.23
2022-09-13T14:17:33.823Z,197.13
2022-09-13T14:20:26.851Z,194.25
2022-09-13T14:23:13.446Z,198.43
2022-09-13T14:25:40.865Z,202.85
2022-09-13T14:28:08.247Z,199.75
2022-09-13T14:30:37.994Z,198.70
2022-09-13T14:33:06.256Z,195.40
2022-09-13T14:35:40.598Z,201.85
2022-09-13T14:38:16.845Z,200.48
2022-09-13T14:40:51.848Z,192.48
2022-09-13T14:43:24.953Z,191.75
2022-09-13T14:46:18.111Z,201.93
2022-09-13T14:48:57.358Z,188.27
2022-09-13T14:51:30.441Z,196.30
2022-09-13T14:54:07.563Z,201.77
2022-09-13T14:56:52.391Z,196.13
2022-09-13T14:59:35.970Z,193.75
2022-09-13T15:02:18.068Z,197.52
2022-09-13T15:04:54.677Z,196.65
2022-09-13T15:07:31.055Z,202.82
2022-09-13T15:10:19.582Z,200.77
2022-09-13T15:12:58.879Z,200.80
2022-09-13T15:15:36.863Z,198.98
2022-09-13T15:18:25.940Z,194.73
2022-09-13T15:20:56.219Z,192.10
2022-09-13T15:23:28.298Z,196.90
2022-09-13T15:26:01.637Z,211.10
2022-09-13T15:28:33.102Z,200.23
2022-09-13T15:31:02.302Z,197.18
2022-09-13T15:33:31.867Z,183.45
2022-09-13T15:36:21.105Z,206.95
2022-09-13T15:39:04.704Z,192.02
2022-09-13T15:41:36.395Z,190.77
2022-09-13T15:44:09.590Z,273.13
2022-09-13T15:46:59.866Z,196.80
2022-09-13T15:49:29.030Z,180.50
2022-09-13T15:52:01.675Z,179.85
2022-09-13T15:54:41.172Z,132.15
2022-09-13T15:57:13.965Z,186.70
2022-09-13T15:59:42.052Z,207.13
2022-09-13T16:02:25.823Z,184.30
2022-09-13T16:04:54.013Z,174.40
2022-09-13T16:07:22.182Z,184.70
2022-09-13T16:09:50.022Z,181.90
2022-09-13T16:12:19.145Z,179.77
2022-09-13T16:14:47.797Z,177.90
2022-09-13T16:17:23.276Z,178.00
2022-09-13T16:19:50.662Z,180.93
2022-09-13T16:22:17.873Z,175.07
2022-09-13T16:24:45.393Z,170.05
2022-09-13T16:27:17.614Z,182.43
2022-09-13T16:29:46.136Z,179.32
2022-09-13T16:32:13.390Z,169.25
2022-09-13T16:34:40.826Z,170.93
2022-09-13T16:37:08.274Z,173.75
2022-09-13T16:39:35.645Z,181.68
2022-09-13T16:42:05.013Z,177.18
2022-09-13T16:44:32.424Z,177.95
2022-09-13T16:46:59.719Z,173.75
2022-09-13T16:49:27.500Z,169.55
2022-09-13T16:51:54.823Z,177.15
2022-09-13T16:54:22.255Z,177.20
2022-09-13T16:56:50.659Z,176.93
2022-09-13T16:59:18.146Z,168.27
2022-09-13T17:01:45.460Z,168.25
2022-09-13T17:04:12.962Z,173.95
2022-09-13T17:06:40.584Z,175.00
2022-09-13T17:09:08.699Z,175.68
2022-09-13T17:11:39.455Z,172.32
2022-09-13T17:14:08.677Z,176.05
2022-09-13T17:16:47.708Z,171.57
2022-09-13T17:19:19.113Z,187.73
2022-09-13T17:21:46.849Z,170.77
2022-09-13T17:24:14.534Z,177.63
2022-09-13T17:26:46.848Z,173.07
2022-09-13T17:29:15.342Z,176.38
2022-09-13T17:31:43.717Z,170.30
2022-09-13T17:34:13.144Z,174.77
2022-09-13T17:36:43.649Z,178.27
2022-09-13T17:39:11.867Z,175.38
2022-09-13T17:41:39.318Z,179.05
2022-09-13T17:44:06.787Z,169.98
2022-09-13T17:46:34.235Z,171.07
2022-09-13T17:49:01.884Z,175.10
2022-09-13T17:51:31.239Z,170.13
2022-09-13T17:54:00.737Z,172.13
2022-09-13T17:56:34.348Z,171.40
2022-09-13T17:59:15.846Z,171.38
2022-09-13T18:01:48.674Z,164.73
2022-09-13T18:04:18.113Z,121.50
2022-09-13T18:06:46.029Z,172.23
2022-09-13T18:09:15.087Z,173.93
2022-09-13T18:11:43.006Z,178.23
2022-09-13T18:14:15.326Z,166.27
2022-09-13T18:16:43.967Z,162.65
2022-09-13T18:19:11.817Z,167.18
2022-09-13T18:21:39.284Z,174.02
2022-09-13T18:24:07.528Z,168.82
2022-09-13T18:26:35.028Z,168.30
2022-09-13T18:29:05.682Z,168.20
2022-09-13T18:31:35.282Z,159.20
2022-09-13T18:34:08.181Z,169.48
2022-09-13T18:36:36.578Z,160.85
2022-09-13T18:39:05.685Z,167.20
2022-09-13T18:41:37.967Z,163.18
2022-09-13T18:44:05.283Z,165.40
2022-09-13T18:46:34.525Z,164.20
2022-09-13T18:49:03.363Z,165.35
2022-09-13T18:51:36.326Z,166.95
2022-09-13T18:54:05.131Z,162.52
2022-09-13T18:56:35.949Z,161.63
2022-09-13T18:59:05.961Z,165.20
2022-09-13T19:01:36.442Z,161.05
2022-09-13T19:04:07.570Z,168.98
2022-09-13T19:06:48.880Z,165.30
2022-09-13T19:09:17.185Z,165.55
2022-09-13T19:11:47.809Z,167.50
2022-09-13T19:14:23.316Z,166.35
2022-09-13T19:16:52.214Z,163.32
2022-09-13T19:19:20.030Z,167.52
2022-09-13T19:21:47.776Z,165.18
2022-09-13T19:24:19.404Z,161.95
2022-09-13T19:26:51.479Z,163.15
2022-09-13T19:29:21.420Z,163.85
2022-09-13T19:31:49.893Z,161.20
2022-09-13T19:34:22.347Z,165.93
2022-09-13T19:36:54.505Z,158.80
2022-09-13T19:39:24.762Z,158.77
2022-09-13T19:41:56.048Z,161.02
2022-09-13T19:44:23.365Z,163.45
2022-09-13T19:47:06.855Z,161.70
2022-09-13T19:49:35.252Z,161.35
2022-09-13T19:52:03.086Z,164.52
2022-09-13T19:54:30.551Z,160.95
2022-09-13T19:56:57.856Z,162.27
2022-09-13T19:59:25.544Z,163.00
2022-09-13T20:01:53.194Z,163.43
2022-09-13T20:04:21.858Z,155.75
2022-09-13T20:06:52.032Z,152.93
2022-09-13T20:09:21.040Z,156.65
2022-09-13T20:11:49.100Z,158.80
2022-09-13T20:14:20.572Z,159.55
2022-09-13T20:16:48.742Z,163.43
2022-09-13T20:22:09.022Z,161.15
2022-09-13T20:24:36.554Z,156.55
2022-09-13T20:27:04.277Z,160.68
2022-09-13T20:29:31.927Z,161.57
2022-09-13T20:32:00.035Z,166.02
2022-09-13T20:34:28.157Z,160.10
2022-09-13T20:36:55.524Z,167.38
2022-09-13T20:39:22.885Z,154.20
2022-09-13T20:41:50.509Z,156.00
2022-09-13T20:44:18.544Z,157.40
2022-09-13T20:46:45.991Z,160.88
2022-09-13T20:49:13.373Z,154.50
2022-09-13T20:51:40.954Z,158.70
2022-09-13T20:54:08.504Z,162.15
2022-09-13T20:56:36.336Z,161.02
2022-09-13T20:59:04.640Z,159.55
2022-09-13T21:01:33.318Z,154.15
2022-09-13T21:04:01.365Z,154.52
2022-09-13T21:06:31.011Z,154.10
2022-09-13T21:09:00.384Z,156.27
2022-09-13T21:11:35.205Z,155.82
2022-09-13T21:14:08.669Z,155.98
2022-09-13T21:16:41.426Z,160.57
2022-09-13T21:19:09.395Z,115.15
2022-09-13T21:21:39.241Z,156.55
2022-09-13T21:24:10.002Z,156.30
2022-09-13T21:26:39.876Z,150.98
2022-09-13T21:29:07.225Z,152.18
2022-09-13T21:31:35.097Z,159.18
2022-09-13T21:34:15.196Z,154.60
2022-09-13T21:36:44.153Z,159.27
2022-09-13T21:39:12.713Z,157.85
2022-09-13T21:41:40.449Z,157.52
2022-09-13T21:44:08.113Z,155.38
2022-09-13T21:46:36.872Z,157.75
2022-09-13T21:49:06.878Z,154.18
2022-09-13T21:51:39.599Z,149.15
2022-09-13T21:54:09.581Z,114.43
2022-09-13T21:56:40.019Z,154.80
2022-09-13T21:59:14.799Z,154.43
2022-09-13T22:01:44.341Z,156.70
2022-09-13T22:04:17.221Z,156.60
2022-09-13T22:06:45.979Z,154.20
2022-09-13T22:09:14.694Z,157.10
2022-09-13T22:11:44.943Z,153.23
2022-09-13T22:14:14.628Z,152.27
2022-09-13T22:16:43.738Z,148.70
2022-09-13T22:19:14.402Z,152.85
2022-09-13T22:21:44.867Z,152.93
2022-09-13T22:24:18.326Z,153.95
2022-09-13T22:29:15.466Z,147.23
2022-09-13T22:31:45.500Z,153.18
2022-09-13T22:34:15.687Z,147.10
2022-09-13T22:36:43.711Z,152.40
2022-09-13T22:39:12.925Z,148.75
2022-09-13T22:41:41.289Z,151.68
2022-09-13T22:44:09.119Z,149.60
2022-09-13T22:46:41.808Z,152.02
2022-09-13T22:49:13.015Z,110.30
2022-09-13T22:51:40.663Z,149.77
2022-09-13T22:54:08.944Z,152.25
2022-09-13T22:56:37.922Z,149.93
2022-09-13T22:59:09.206Z,150.73
2022-09-13T23:01:38.202Z,152.27
2022-09-13T23:04:06.877Z,152.73
2022-09-13T23:06:35.569Z,150.75
2022-09-13T23:09:05.767Z,153.93
2022-09-13T23:11:36.050Z,151.75
2022-09-13T23:14:06.683Z,153.95
2022-09-13T23:16:44.138Z,153.40
2022-09-13T23:19:13.483Z,153.35
2022-09-13T23:21:41.721Z,155.50
2022-09-13T23:24:15.403Z,149.07
2022-09-13T23:26:44.120Z,150.75
2022-09-13T23:29:19.740Z,150.63
2022-09-13T23:31:48.232Z,151.70
2022-09-13T23:34:17.834Z,153.35
2022-09-13T23:36:46.586Z,154.52
2022-09-13T23:39:16.869Z,152.55
2022-09-13T23:41:46.110Z,150.55
2022-09-13T23:44:13.940Z,150.13
2022-09-13T23:46:41.914Z,150.05
2022-09-13T23:49:09.289Z,152.02
2022-09-13T23:51:37.023Z,152.07
2022-09-13T23:54:04.909Z,152.05
2022-09-13T23:56:33.655Z,154.18
2022-09-13T23:59:02.594Z,151.15
